sensor_id;sensor_type;location;lat;lon;timestamp;P1;durP1;ratioP1;P2;durP2;ratioP2
48925;SDS011;39838;59.938;30.642;2023-05-10T00:01:59;12.40;;;6.53;;
48925;SDS011;39838;59.938;30.642;2023-05-10T00:04:28;14.70;;;7.40;;
48925;SDS011;39838;59.938;30.642;2023-05-10T00:06:55;13.75;;;6.82;;
48925;SDS011;39838;59.938;30.642;2023-05-10T00:09:23;11.35;;;6.75;;
48925;SDS011;39838;59.938;30.642;2023-05-10T00:11:50;14.65;;;6.93;;
48925;SDS011;39838;59.938;30.642;2023-05-10T00:14:17;14.68;;;7.13;;
48925;SDS011;39838;59.938;30.642;2023-05-10T00:16:45;18.05;;;7.97;;
48925;SDS011;39838;59.938;30.642;2023-05-10T00:19:12;19.05;;;6.93;;
48925;SDS011;39838;59.938;30.642;2023-05-10T00:21:41;16.95;;;7.35;;
48925;SDS011;39838;59.938;30.642;2023-05-10T00:24:08;23.98;;;7.95;;
48925;SDS011;39838;59.938;30.642;2023-05-10T00:26:35;20.90;;;8.00;;
48925;SDS011;39838;59.938;30.642;2023-05-10T00:29:02;18.38;;;7.68;;
48925;SDS011;39838;59.938;30.642;2023-05-10T00:31:30;29.15;;;8.02;;
48925;SDS011;39838;59.938;30.642;2023-05-10T00:33:57;23.80;;;8.02;;
48925;SDS011;39838;59.938;30.642;2023-05-10T00:36:25;17.77;;;7.57;;
48925;SDS011;39838;59.938;30.642;2023-05-10T00:38:54;16.98;;;7.72;;
48925;SDS011;39838;59.938;30.642;2023-05-10T00:41:21;18.67;;;7.50;;
48925;SDS011;39838;59.938;30.642;2023-05-10T00:43:48;20.70;;;7.93;;
48925;SDS011;39838;59.938;30.642;2023-05-10T00:46:16;19.13;;;7.70;;
48925;SDS011;39838;59.938;30.642;2023-05-10T00:48:43;18.30;;;7.90;;
48925;SDS011;39838;59.938;30.642;2023-05-10T00:51:11;17.90;;;7.78;;
48925;SDS011;39838;59.938;30.642;2023-05-10T00:53:38;15.70;;;7.57;;
48925;SDS011;39838;59.938;30.642;2023-05-10T00:56:08;17.85;;;7.88;;
48925;SDS011;39838;59.938;30.642;2023-05-10T00:58:35;18.52;;;7.47;;
48925;SDS011;39838;59.938;30.642;2023-05-10T01:01:03;25.55;;;8.93;;
48925;SDS011;39838;59.938;30.642;2023-05-10T01:03:32;38.70;;;10.88;;
48925;SDS011;39838;59.938;30.642;2023-05-10T01:05:59;18.73;;;8.15;;
48925;SDS011;39838;59.938;30.642;2023-05-10T01:08:27;26.00;;;10.68;;
48925;SDS011;39838;59.938;30.642;2023-05-10T01:10:54;29.17;;;11.63;;
48925;SDS011;39838;59.938;30.642;2023-05-10T01:13:30;22.48;;;8.90;;
48925;SDS011;39838;59.938;30.642;2023-05-10T01:15:59;29.55;;;10.95;;
48925;SDS011;39838;59.938;30.642;2023-05-10T01:18:29;23.10;;;10.68;;
48925;SDS011;39838;59.938;30.642;2023-05-10T01:20:59;32.03;;;11.63;;
48925;SDS011;39838;59.938;30.642;2023-05-10T01:23:42;35.78;;;11.32;;
48925;SDS011;39838;59.938;30.642;2023-05-10T01:26:39;28.35;;;11.30;;
48925;SDS011;39838;59.938;30.642;2023-05-10T01:32:22;28.92;;;11.65;;
48925;SDS011;39838;59.938;30.642;2023-05-10T01:34:59;27.52;;;10.65;;
48925;SDS011;39838;59.938;30.642;2023-05-10T01:37:37;37.55;;;10.88;;
48925;SDS011;39838;59.938;30.642;2023-05-10T01:40:11;33.92;;;11.40;;
48925;SDS011;39838;59.938;30.642;2023-05-10T01:42:47;26.13;;;9.82;;
48925;SDS011;39838;59.938;30.642;2023-05-10T01:45:19;25.63;;;11.02;;
48925;SDS011;39838;59.938;30.642;2023-05-10T01:47:55;31.83;;;11.65;;
48925;SDS011;39838;59.938;30.642;2023-05-10T01:50:29;30.48;;;10.57;;
48925;SDS011;39838;59.938;30.642;2023-05-10T01:52:58;33.97;;;11.38;;
48925;SDS011;39838;59.938;30.642;2023-05-10T01:55:28;32.55;;;11.60;;
48925;SDS011;39838;59.938;30.642;2023-05-10T01:58:00;21.33;;;9.50;;
48925;SDS011;39838;59.938;30.642;2023-05-10T02:00:30;22.70;;;9.07;;
48925;SDS011;39838;59.938;30.642;2023-05-10T02:03:01;20.80;;;8.68;;
48925;SDS011;39838;59.938;30.642;2023-05-10T02:05:33;22.40;;;8.68;;
48925;SDS011;39838;59.938;30.642;2023-05-10T02:08:02;17.27;;;7.28;;
48925;SDS011;39838;59.938;30.642;2023-05-10T02:10:33;15.73;;;7.63;;
48925;SDS011;39838;59.938;30.642;2023-05-10T02:13:02;21.65;;;7.53;;
48925;SDS011;39838;59.938;30.642;2023-05-10T02:15:32;15.70;;;7.60;;
48925;SDS011;39838;59.938;30.642;2023-05-10T02:18:03;15.32;;;7.53;;
48925;SDS011;39838;59.938;30.642;2023-05-10T02:20:32;20.13;;;8.18;;
48925;SDS011;39838;59.938;30.642;2023-05-10T02:23:01;17.45;;;8.07;;
48925;SDS011;39838;59.938;30.642;2023-05-10T02:25:30;18.92;;;8.80;;
48925;SDS011;39838;59.938;30.642;2023-05-10T02:27:59;14.75;;;7.03;;
48925;SDS011;39838;59.938;30.642;2023-05-10T02:30:30;18.67;;;8.07;;
48925;SDS011;39838;59.938;30.642;2023-05-10T02:32:59;17.30;;;6.93;;
48925;SDS011;39838;59.938;30.642;2023-05-10T02:35:29;13.85;;;6.85;;
48925;SDS011;39838;59.938;30.642;2023-05-10T02:37:58;14.52;;;6.60;;
48925;SDS011;39838;59.938;30.642;2023-05-10T02:40:27;14.45;;;7.18;;
48925;SDS011;39838;59.938;30.642;2023-05-10T02:42:56;15.70;;;6.65;;
48925;SDS011;39838;59.938;30.642;2023-05-10T02:45:27;14.30;;;6.90;;
48925;SDS011;39838;59.938;30.642;2023-05-10T02:47:56;13.70;;;6.75;;
48925;SDS011;39838;59.938;30.642;2023-05-10T02:50:25;16.30;;;7.45;;
48925;SDS011;39838;59.938;30.642;2023-05-10T02:52:56;12.95;;;6.60;;
48925;SDS011;39838;59.938;30.642;2023-05-10T02:55:32;19.80;;;7.20;;
48925;SDS011;39838;59.938;30.642;2023-05-10T02:58:04;17.15;;;6.80;;
48925;SDS011;39838;59.938;30.642;2023-05-10T03:00:32;14.63;;;6.60;;
48925;SDS011;39838;59.938;30.642;2023-05-10T03:02:59;15.45;;;6.63;;
48925;SDS011;39838;59.938;30.642;2023-05-10T03:05:26;20.80;;;7.50;;
48925;SDS011;39838;59.938;30.642;2023-05-10T03:07:54;14.35;;;6.97;;
48925;SDS011;39838;59.938;30.642;2023-05-10T03:10:25;16.75;;;7.75;;
48925;SDS011;39838;59.938;30.642;2023-05-10T03:12:59;14.88;;;7.10;;
48925;SDS011;39838;59.938;30.642;2023-05-10T03:15:42;17.23;;;7.43;;
48925;SDS011;39838;59.938;30.642;2023-05-10T03:18:21;14.25;;;7.00;;
48925;SDS011;39838;59.938;30.642;2023-05-10T03:20:50;17.52;;;7.13;;
48925;SDS011;39838;59.938;30.642;2023-05-10T03:23:26;13.35;;;7.07;;
48925;SDS011;39838;59.938;30.642;2023-05-10T03:26:00;13.30;;;7.15;;
48925;SDS011;39838;59.938;30.642;2023-05-10T03:28:29;14.07;;;7.32;;
48925;SDS011;39838;59.938;30.642;2023-05-10T03:30:58;18.65;;;7.03;;
48925;SDS011;39838;59.938;30.642;2023-05-10T03:33:26;11.93;;;6.95;;
48925;SDS011;39838;59.938;30.642;2023-05-10T03:35:53;12.98;;;7.13;;
48925;SDS011;39838;59.938;30.642;2023-05-10T03:38:21;17.88;;;7.80;;
48925;SDS011;39838;59.938;30.642;2023-05-10T03:40:49;23.95;;;8.32;;
48925;SDS011;39838;59.938;30.642;2023-05-10T03:43:17;20.67;;;8.02;;
48925;SDS011;39838;59.938;30.642;2023-05-10T03:45:44;25.45;;;8.73;;
48925;SDS011;39838;59.938;30.642;2023-05-10T03:48:12;20.23;;;9.13;;
48925;SDS011;39838;59.938;30.642;2023-05-10T03:50:40;19.20;;;9.82;;
48925;SDS011;39838;59.938;30.642;2023-05-10T03:53:08;20.13;;;9.35;;
48925;SDS011;39838;59.938;30.642;2023-05-10T03:55:35;22.50;;;9.35;;
48925;SDS011;39838;59.938;30.642;2023-05-10T03:58:04;19.98;;;9.25;;
48925;SDS011;39838;59.938;30.642;2023-05-10T04:00:31;16.20;;;8.73;;
48925;SDS011;39838;59.938;30.642;2023-05-10T04:02:58;16.25;;;8.00;;
48925;SDS011;39838;59.938;30.642;2023-05-10T04:05:26;17.83;;;8.10;;
48925;SDS011;39838;59.938;30.642;2023-05-10T04:07:53;16.92;;;8.38;;
48925;SDS011;39838;59.938;30.642;2023-05-10T04:10:20;14.63;;;8.10;;
48925;SDS011;39838;59.938;30.642;2023-05-10T04:12:47;16.50;;;7.38;;
48925;SDS011;39838;59.938;30.642;2023-05-10T04:15:16;20.60;;;7.40;;
48925;SDS011;39838;59.938;30.642;2023-05-10T04:17:43;23.10;;;8.75;;
48925;SDS011;39838;59.938;30.642;2023-05-10T04:20:11;17.67;;;7.03;;
48925;SDS011;39838;59.938;30.642;2023-05-10T04:22:39;16.23;;;7.88;;
48925;SDS011;39838;59.938;30.642;2023-05-10T04:25:07;12.85;;;6.30;;
48925;SDS011;39838;59.938;30.642;2023-05-10T04:27:35;12.63;;;5.43;;
48925;SDS011;39838;59.938;30.642;2023-05-10T04:30:02;12.43;;;6.03;;
48925;SDS011;39838;59.938;30.642;2023-05-10T04:32:33;13.65;;;5.70;;
48925;SDS011;39838;59.938;30.642;2023-05-10T04:35:01;11.05;;;5.30;;
48925;SDS011;39838;59.938;30.642;2023-05-10T04:37:30;9.98;;;5.47;;
48925;SDS011;39838;59.938;30.642;2023-05-10T04:39:57;12.52;;;5.20;;
48925;SDS011;39838;59.938;30.642;2023-05-10T04:42:25;10.60;;;5.03;;
48925;SDS011;39838;59.938;30.642;2023-05-10T04:44:53;11.45;;;5.13;;
48925;SDS011;39838;59.938;30.642;2023-05-10T04:47:20;11.77;;;5.40;;
48925;SDS011;39838;59.938;30.642;2023-05-10T04:49:49;10.27;;;5.03;;
48925;SDS011;39838;59.938;30.642;2023-05-10T04:52:16;9.25;;;5.25;;
48925;SDS011;39838;59.938;30.642;2023-05-10T04:54:43;8.10;;;5.15;;
48925;SDS011;39838;59.938;30.642;2023-05-10T04:57:11;14.15;;;5.30;;
48925;SDS011;39838;59.938;30.642;2023-05-10T04:59:38;12.10;;;5.90;;
48925;SDS011;39838;59.938;30.642;2023-05-10T05:02:05;12.70;;;5.07;;
48925;SDS011;39838;59.938;30.642;2023-05-10T05:04:33;10.88;;;5.22;;
48925;SDS011;39838;59.938;30.642;2023-05-10T05:07:01;11.27;;;5.78;;
48925;SDS011;39838;59.938;30.642;2023-05-10T05:09:29;13.05;;;5.80;;
48925;SDS011;39838;59.938;30.642;2023-05-10T05:11:57;16.33;;;5.97;;
48925;SDS011;39838;59.938;30.642;2023-05-10T05:14:25;12.23;;;5.45;;
48925;SDS011;39838;59.938;30.642;2023-05-10T05:16:52;14.65;;;5.78;;
48925;SDS011;39838;59.938;30.642;2023-05-10T05:19:21;11.85;;;5.70;;
48925;SDS011;39838;59.938;30.642;2023-05-10T05:21:48;14.77;;;5.40;;
48925;SDS011;39838;59.938;30.642;2023-05-10T05:24:17;9.35;;;5.38;;
48925;SDS011;39838;59.938;30.642;2023-05-10T05:26:44;13.77;;;6.05;;
48925;SDS011;39838;59.938;30.642;2023-05-10T05:29:11;10.73;;;5.47;;
48925;SDS011;39838;59.938;30.642;2023-05-10T05:31:39;22.77;;;6.30;;
48925;SDS011;39838;59.938;30.642;2023-05-10T05:34:06;15.25;;;6.07;;
48925;SDS011;39838;59.938;30.642;2023-05-10T05:36:35;22.45;;;7.00;;
48925;SDS011;39838;59.938;30.642;2023-05-10T05:39:03;21.08;;;7.22;;
48925;SDS011;39838;59.938;30.642;2023-05-10T05:41:32;18.27;;;7.55;;
48925;SDS011;39838;59.938;30.642;2023-05-10T05:43:59;17.00;;;7.30;;
48925;SDS011;39838;59.938;30.642;2023-05-10T05:46:27;25.63;;;8.63;;
48925;SDS011;39838;59.938;30.642;2023-05-10T05:48:54;16.67;;;7.65;;
48925;SDS011;39838;59.938;30.642;2023-05-10T05:51:21;21.50;;;7.30;;
48925;SDS011;39838;59.938;30.642;2023-05-10T05:53:49;15.40;;;6.88;;
48925;SDS011;39838;59.938;30.642;2023-05-10T05:56:16;13.75;;;7.40;;
48925;SDS011;39838;59.938;30.642;2023-05-10T05:58:50;17.58;;;7.57;;
48925;SDS011;39838;59.938;30.642;2023-05-10T06:01:18;13.75;;;7.70;;
48925;SDS011;39838;59.938;30.642;2023-05-10T06:03:45;13.98;;;7.65;;
48925;SDS011;39838;59.938;30.642;2023-05-10T06:06:12;19.50;;;8.65;;
48925;SDS011;39838;59.938;30.642;2023-05-10T06:08:40;19.83;;;8.10;;
48925;SDS011;39838;59.938;30.642;2023-05-10T06:11:07;14.73;;;7.80;;
48925;SDS011;39838;59.938;30.642;2023-05-10T06:13:34;16.23;;;8.30;;
48925;SDS011;39838;59.938;30.642;2023-05-10T06:16:03;18.30;;;8.38;;
48925;SDS011;39838;59.938;30.642;2023-05-10T06:18:31;22.13;;;8.07;;
48925;SDS011;39838;59.938;30.642;2023-05-10T06:20:58;18.52;;;7.43;;
48925;SDS011;39838;59.938;30.642;2023-05-10T06:23:26;13.98;;;6.75;;
48925;SDS011;39838;59.938;30.642;2023-05-10T06:25:54;15.93;;;6.60;;
48925;SDS011;39838;59.938;30.642;2023-05-10T06:28:21;14.18;;;6.10;;
48925;SDS011;39838;59.938;30.642;2023-05-10T06:30:48;9.50;;;5.50;;
48925;SDS011;39838;59.938;30.642;2023-05-10T06:33:17;10.65;;;5.90;;
48925;SDS011;39838;59.938;30.642;2023-05-10T06:35:45;11.13;;;5.40;;
48925;SDS011;39838;59.938;30.642;2023-05-10T06:38:12;11.98;;;5.85;;
48925;SDS011;39838;59.938;30.642;2023-05-10T06:40:40;17.13;;;6.00;;
48925;SDS011;39838;59.938;30.642;2023-05-10T06:43:08;14.23;;;5.82;;
48925;SDS011;39838;59.938;30.642;2023-05-10T06:45:37;11.00;;;5.05;;
48925;SDS011;39838;59.938;30.642;2023-05-10T06:48:04;10.60;;;5.35;;
48925;SDS011;39838;59.938;30.642;2023-05-10T06:50:33;8.10;;;4.40;;
48925;SDS011;39838;59.938;30.642;2023-05-10T06:53:01;11.65;;;4.50;;
48925;SDS011;39838;59.938;30.642;2023-05-10T06:55:29;8.25;;;4.03;;
48925;SDS011;39838;59.938;30.642;2023-05-10T06:57:56;10.55;;;4.05;;
48925;SDS011;39838;59.938;30.642;2023-05-10T07:00:23;9.60;;;4.25;;
48925;SDS011;39838;59.938;30.642;2023-05-10T07:02:51;7.80;;;4.10;;
48925;SDS011;39838;59.938;30.642;2023-05-10T07:05:18;10.05;;;4.10;;
48925;SDS011;39838;59.938;30.642;2023-05-10T07:07:47;7.50;;;4.22;;
48925;SDS011;39838;59.938;30.642;2023-05-10T07:10:15;10.15;;;4.13;;
48925;SDS011;39838;59.938;30.642;2023-05-10T07:12:42;12.45;;;4.28;;
48925;SDS011;39838;59.938;30.642;2023-05-10T07:15:10;9.73;;;4.45;;
48925;SDS011;39838;59.938;30.642;2023-05-10T07:17:37;13.20;;;4.30;;
48925;SDS011;39838;59.938;30.642;2023-05-10T07:20:05;7.13;;;3.47;;
48925;SDS011;39838;59.938;30.642;2023-05-10T07:22:33;6.65;;;3.75;;
48925;SDS011;39838;59.938;30.642;2023-05-10T07:25:03;13.57;;;4.07;;
48925;SDS011;39838;59.938;30.642;2023-05-10T07:27:31;11.55;;;3.65;;
48925;SDS011;39838;59.938;30.642;2023-05-10T07:29:58;11.63;;;4.43;;
48925;SDS011;39838;59.938;30.642;2023-05-10T07:32:26;7.22;;;3.88;;
48925;SDS011;39838;59.938;30.642;2023-05-10T07:34:53;6.40;;;4.10;;
48925;SDS011;39838;59.938;30.642;2023-05-10T07:37:21;8.25;;;3.80;;
48925;SDS011;39838;59.938;30.642;2023-05-10T07:39:48;11.18;;;3.83;;
48925;SDS011;39838;59.938;30.642;2023-05-10T07:42:17;6.22;;;3.67;;
48925;SDS011;39838;59.938;30.642;2023-05-10T07:44:44;10.50;;;3.85;;
48925;SDS011;39838;59.938;30.642;2023-05-10T07:47:12;8.02;;;3.67;;
48925;SDS011;39838;59.938;30.642;2023-05-10T07:49:39;7.65;;;4.20;;
48925;SDS011;39838;59.938;30.642;2023-05-10T07:52:07;9.40;;;3.80;;
48925;SDS011;39838;59.938;30.642;2023-05-10T07:54:34;8.90;;;3.75;;
48925;SDS011;39838;59.938;30.642;2023-05-10T07:57:01;7.05;;;3.65;;
48925;SDS011;39838;59.938;30.642;2023-05-10T07:59:30;7.85;;;3.58;;
48925;SDS011;39838;59.938;30.642;2023-05-10T08:01:57;13.07;;;3.75;;
48925;SDS011;39838;59.938;30.642;2023-05-10T08:04:26;10.70;;;3.65;;
48925;SDS011;39838;59.938;30.642;2023-05-10T08:06:53;8.73;;;4.13;;
48925;SDS011;39838;59.938;30.642;2023-05-10T08:09:20;5.63;;;3.63;;
48925;SDS011;39838;59.938;30.642;2023-05-10T08:11:49;12.43;;;4.13;;
48925;SDS011;39838;59.938;30.642;2023-05-10T08:14:16;14.20;;;3.60;;
48925;SDS011;39838;59.938;30.642;2023-05-10T08:16:45;10.02;;;3.70;;
48925;SDS011;39838;59.938;30.642;2023-05-10T08:19:13;6.05;;;3.70;;
48925;SDS011;39838;59.938;30.642;2023-05-10T08:21:44;7.55;;;3.40;;
48925;SDS011;39838;59.938;30.642;2023-05-10T08:24:11;14.50;;;3.97;;
48925;SDS011;39838;59.938;30.642;2023-05-10T08:26:38;7.95;;;3.20;;
48925;SDS011;39838;59.938;30.642;2023-05-10T08:29:06;9.85;;;3.58;;
48925;SDS011;39838;59.938;30.642;2023-05-10T08:31:33;12.27;;;3.60;;
48925;SDS011;39838;59.938;30.642;2023-05-10T08:34:02;6.13;;;3.03;;
48925;SDS011;39838;59.938;30.642;2023-05-10T08:36:29;6.93;;;3.30;;
48925;SDS011;39838;59.938;30.642;2023-05-10T08:38:57;7.18;;;3.30;;
48925;SDS011;39838;59.938;30.642;2023-05-10T08:41:25;13.77;;;3.58;;
48925;SDS011;39838;59.938;30.642;2023-05-10T08:43:52;6.47;;;3.28;;
48925;SDS011;39838;59.938;30.642;2023-05-10T08:46:21;8.55;;;3.05;;
48925;SDS011;39838;59.938;30.642;2023-05-10T08:48:50;7.40;;;3.17;;
48925;SDS011;39838;59.938;30.642;2023-05-10T08:51:19;8.63;;;3.67;;
48925;SDS011;39838;59.938;30.642;2023-05-10T08:53:51;6.80;;;3.50;;
48925;SDS011;39838;59.938;30.642;2023-05-10T08:56:19;8.32;;;3.10;;
48925;SDS011;39838;59.938;30.642;2023-05-10T08:58:47;12.90;;;3.70;;
48925;SDS011;39838;59.938;30.642;2023-05-10T09:01:15;8.68;;;3.03;;
48925;SDS011;39838;59.938;30.642;2023-05-10T09:03:43;8.05;;;3.15;;
48925;SDS011;39838;59.938;30.642;2023-05-10T09:06:12;8.93;;;3.60;;
48925;SDS011;39838;59.938;30.642;2023-05-10T09:08:42;6.47;;;3.10;;
48925;SDS011;39838;59.938;30.642;2023-05-10T09:11:09;9.50;;;3.75;;
48925;SDS011;39838;59.938;30.642;2023-05-10T09:13:38;13.27;;;3.47;;
48925;SDS011;39838;59.938;30.642;2023-05-10T09:16:05;8.57;;;3.17;;
48925;SDS011;39838;59.938;30.642;2023-05-10T09:18:33;9.77;;;3.50;;
48925;SDS011;39838;59.938;30.642;2023-05-10T09:21:00;8.25;;;3.00;;
48925;SDS011;39838;59.938;30.642;2023-05-10T09:23:27;5.53;;;2.70;;
48925;SDS011;39838;59.938;30.642;2023-05-10T09:26:05;10.88;;;2.83;;
48925;SDS011;39838;59.938;30.642;2023-05-10T09:28:33;10.63;;;3.10;;
48925;SDS011;39838;59.938;30.642;2023-05-10T09:31:00;7.43;;;3.03;;
48925;SDS011;39838;59.938;30.642;2023-05-10T09:33:28;10.68;;;3.00;;
48925;SDS011;39838;59.938;30.642;2023-05-10T09:36:05;8.13;;;3.33;;
48925;SDS011;39838;59.938;30.642;2023-05-10T09:38:44;4.95;;;3.10;;
48925;SDS011;39838;59.938;30.642;2023-05-10T09:41:16;5.97;;;3.20;;
48925;SDS011;39838;59.938;30.642;2023-05-10T09:43:44;6.68;;;3.10;;
48925;SDS011;39838;59.938;30.642;2023-05-10T09:46:11;12.40;;;3.10;;
48925;SDS011;39838;59.938;30.642;2023-05-10T09:48:41;13.00;;;3.50;;
48925;SDS011;39838;59.938;30.642;2023-05-10T09:51:09;10.98;;;2.90;;
48925;SDS011;39838;59.938;30.642;2023-05-10T09:53:37;6.55;;;3.10;;
48925;SDS011;39838;59.938;30.642;2023-05-10T09:56:04;7.43;;;2.92;;
48925;SDS011;39838;59.938;30.642;2023-05-10T09:58:33;9.55;;;3.15;;
48925;SDS011;39838;59.938;30.642;2023-05-10T10:01:03;9.95;;;3.25;;
48925;SDS011;39838;59.938;30.642;2023-05-10T10:03:31;6.15;;;3.00;;
48925;SDS011;39838;59.938;30.642;2023-05-10T10:05:58;6.32;;;3.10;;
48925;SDS011;39838;59.938;30.642;2023-05-10T10:08:25;7.20;;;3.20;;
48925;SDS011;39838;59.938;30.642;2023-05-10T10:10:53;7.47;;;3.10;;
48925;SDS011;39838;59.938;30.642;2023-05-10T10:13:21;7.22;;;3.13;;
48925;SDS011;39838;59.938;30.642;2023-05-10T10:15:49;6.20;;;3.45;;
48925;SDS011;39838;59.938;30.642;2023-05-10T10:18:18;7.55;;;3.25;;
48925;SDS011;39838;59.938;30.642;2023-05-10T10:20:49;9.10;;;3.20;;
48925;SDS011;39838;59.938;30.642;2023-05-10T10:23:16;6.85;;;3.00;;
48925;SDS011;39838;59.938;30.642;2023-05-10T10:25:44;6.68;;;3.20;;
48925;SDS011;39838;59.938;30.642;2023-05-10T10:28:16;4.30;;;2.90;;
48925;SDS011;39838;59.938;30.642;2023-05-10T10:30:52;7.40;;;3.20;;
48925;SDS011;39838;59.938;30.642;2023-05-10T10:33:29;8.45;;;3.03;;
48925;SDS011;39838;59.938;30.642;2023-05-10T10:36:05;5.95;;;3.03;;
48925;SDS011;39838;59.938;30.642;2023-05-10T10:38:37;6.70;;;3.25;;
48925;SDS011;39838;59.938;30.642;2023-05-10T10:41:27;7.43;;;3.10;;
48925;SDS011;39838;59.938;30.642;2023-05-10T10:47:00;8.40;;;2.95;;
48925;SDS011;39838;59.938;30.642;2023-05-10T10:49:30;6.68;;;3.13;;
48925;SDS011;39838;59.938;30.642;2023-05-10T10:52:14;5.15;;;2.90;;
48925;SDS011;39838;59.938;30.642;2023-05-10T10:54:50;5.22;;;2.85;;
48925;SDS011;39838;59.938;30.642;2023-05-10T10:57:18;6.07;;;3.00;;
48925;SDS011;39838;59.938;30.642;2023-05-10T10:59:47;4.35;;;2.80;;
48925;SDS011;39838;59.938;30.642;2023-05-10T11:02:36;6.90;;;3.03;;
48925;SDS011;39838;59.938;30.642;2023-05-10T11:08:11;4.72;;;2.80;;
48925;SDS011;39838;59.938;30.642;2023-05-10T11:10:50;4.88;;;2.83;;
48925;SDS011;39838;59.938;30.642;2023-05-10T11:13:29;4.55;;;2.70;;
48925;SDS011;39838;59.938;30.642;2023-05-10T11:15:58;9.70;;;3.05;;
48925;SDS011;39838;59.938;30.642;2023-05-10T11:18:28;9.63;;;2.83;;
48925;SDS011;39838;59.938;30.642;2023-05-10T11:20:57;8.77;;;3.20;;
48925;SDS011;39838;59.938;30.642;2023-05-10T11:23:31;8.35;;;3.08;;
48925;SDS011;39838;59.938;30.642;2023-05-10T11:26:13;9.10;;;3.35;;
48925;SDS011;39838;59.938;30.642;2023-05-10T11:28:41;8.45;;;3.22;;
48925;SDS011;39838;59.938;30.642;2023-05-10T11:31:09;6.75;;;2.90;;
48925;SDS011;39838;59.938;30.642;2023-05-10T11:33:43;6.10;;;3.10;;
48925;SDS011;39838;59.938;30.642;2023-05-10T11:36:11;13.30;;;3.10;;
48925;SDS011;39838;59.938;30.642;2023-05-10T11:38:39;15.50;;;3.05;;
48925;SDS011;39838;59.938;30.642;2023-05-10T11:41:07;9.10;;;2.90;;
48925;SDS011;39838;59.938;30.642;2023-05-10T11:43:36;6.82;;;3.20;;
48925;SDS011;39838;59.938;30.642;2023-05-10T11:46:05;6.10;;;3.03;;
48925;SDS011;39838;59.938;30.642;2023-05-10T11:48:33;7.95;;;2.72;;
48925;SDS011;39838;59.938;30.642;2023-05-10T11:51:02;11.45;;;3.08;;
48925;SDS011;39838;59.938;30.642;2023-05-10T11:53:32;9.65;;;3.17;;
48925;SDS011;39838;59.938;30.642;2023-05-10T11:56:03;6.10;;;2.97;;
48925;SDS011;39838;59.938;30.642;2023-05-10T11:58:31;8.15;;;3.10;;
48925;SDS011;39838;59.938;30.642;2023-05-10T12:00:58;6.47;;;3.20;;
48925;SDS011;39838;59.938;30.642;2023-05-10T12:03:26;5.72;;;3.10;;
48925;SDS011;39838;59.938;30.642;2023-05-10T12:05:54;9.82;;;3.00;;
48925;SDS011;39838;59.938;30.642;2023-05-10T12:08:24;6.05;;;3.00;;
48925;SDS011;39838;59.938;30.642;2023-05-10T12:10:53;6.60;;;3.10;;
48925;SDS011;39838;59.938;30.642;2023-05-10T12:13:30;4.40;;;3.25;;
48925;SDS011;39838;59.938;30.642;2023-05-10T12:15:58;7.32;;;3.50;;
48925;SDS011;39838;59.938;30.642;2023-05-10T12:18:26;9.93;;;3.20;;
48925;SDS011;39838;59.938;30.642;2023-05-10T12:20:53;7.40;;;3.13;;
48925;SDS011;39838;59.938;30.642;2023-05-10T12:23:21;5.10;;;3.05;;
48925;SDS011;39838;59.938;30.642;2023-05-10T12:25:49;7.70;;;3.22;;
48925;SDS011;39838;59.938;30.642;2023-05-10T12:28:19;8.75;;;3.08;;
48925;SDS011;39838;59.938;30.642;2023-05-10T12:30:46;11.55;;;3.15;;
48925;SDS011;39838;59.938;30.642;2023-05-10T12:33:14;4.13;;;2.90;;
48925;SDS011;39838;59.938;30.642;2023-05-10T12:35:45;6.03;;;2.95;;
48925;SDS011;39838;59.938;30.642;2023-05-10T12:38:24;7.60;;;3.13;;
48925;SDS011;39838;59.938;30.642;2023-05-10T12:40:58;9.50;;;3.15;;
48925;SDS011;39838;59.938;30.642;2023-05-10T12:43:26;7.95;;;3.08;;
48925;SDS011;39838;59.938;30.642;2023-05-10T12:45:53;6.68;;;3.00;;
48925;SDS011;39838;59.938;30.642;2023-05-10T12:48:21;5.95;;;2.75;;
48925;SDS011;39838;59.938;30.642;2023-05-10T12:50:48;5.28;;;2.83;;
48925;SDS011;39838;59.938;30.642;2023-05-10T12:53:16;8.27;;;3.03;;
48925;SDS011;39838;59.938;30.642;2023-05-10T12:55:43;7.28;;;3.10;;
48925;SDS011;39838;59.938;30.642;2023-05-10T12:58:12;6.68;;;2.95;;
48925;SDS011;39838;59.938;30.642;2023-05-10T13:00:39;7.70;;;2.92;;
48925;SDS011;39838;59.938;30.642;2023-05-10T13:03:07;11.48;;;3.20;;
48925;SDS011;39838;59.938;30.642;2023-05-10T13:05:34;7.20;;;2.97;;
48925;SDS011;39838;59.938;30.642;2023-05-10T13:08:02;6.28;;;2.88;;
48925;SDS011;39838;59.938;30.642;2023-05-10T13:10:30;5.47;;;2.95;;
48925;SDS011;39838;59.938;30.642;2023-05-10T13:13:00;7.28;;;2.90;;
48925;SDS011;39838;59.938;30.642;2023-05-10T13:15:29;5.40;;;2.80;;
48925;SDS011;39838;59.938;30.642;2023-05-10T13:17:56;5.32;;;2.70;;
48925;SDS011;39838;59.938;30.642;2023-05-10T13:20:24;5.10;;;3.40;;
48925;SDS011;39838;59.938;30.642;2023-05-10T13:22:52;6.50;;;2.65;;
48925;SDS011;39838;59.938;30.642;2023-05-10T13:25:19;5.93;;;2.80;;
48925;SDS011;39838;59.938;30.642;2023-05-10T13:27:49;12.43;;;3.13;;
48925;SDS011;39838;59.938;30.642;2023-05-10T13:30:17;9.43;;;2.90;;
48925;SDS011;39838;59.938;30.642;2023-05-10T13:32:47;5.13;;;2.47;;
48925;SDS011;39838;59.938;30.642;2023-05-10T13:35:14;5.28;;;2.50;;
48925;SDS011;39838;59.938;30.642;2023-05-10T13:37:42;6.70;;;2.80;;
48925;SDS011;39838;59.938;30.642;2023-05-10T13:40:09;5.47;;;2.58;;
48925;SDS011;39838;59.938;30.642;2023-05-10T13:42:38;7.47;;;2.42;;
48925;SDS011;39838;59.938;30.642;2023-05-10T13:45:06;5.88;;;2.90;;
48925;SDS011;39838;59.938;30.642;2023-05-10T13:47:36;5.05;;;2.60;;
48925;SDS011;39838;59.938;30.642;2023-05-10T13:50:05;4.65;;;2.70;;
48925;SDS011;39838;59.938;30.642;2023-05-10T13:52:33;9.98;;;2.53;;
48925;SDS011;39838;59.938;30.642;2023-05-10T13:55:00;4.93;;;2.75;;
48925;SDS011;39838;59.938;30.642;2023-05-10T13:57:30;10.13;;;2.38;;
48925;SDS011;39838;59.938;30.642;2023-05-10T14:00:00;11.43;;;2.58;;
48925;SDS011;39838;59.938;30.642;2023-05-10T14:02:32;8.73;;;2.80;;
48925;SDS011;39838;59.938;30.642;2023-05-10T14:04:59;5.45;;;2.42;;
48925;SDS011;39838;59.938;30.642;2023-05-10T14:07:30;6.43;;;2.63;;
48925;SDS011;39838;59.938;30.642;2023-05-10T14:09:58;6.85;;;2.80;;
48925;SDS011;39838;59.938;30.642;2023-05-10T14:12:25;5.70;;;2.50;;
48925;SDS011;39838;59.938;30.642;2023-05-10T14:14:53;6.50;;;2.30;;
48925;SDS011;39838;59.938;30.642;2023-05-10T14:17:20;10.80;;;2.60;;
48925;SDS011;39838;59.938;30.642;2023-05-10T14:19:47;4.63;;;2.53;;
48925;SDS011;39838;59.938;30.642;2023-05-10T14:22:14;9.32;;;2.85;;
48925;SDS011;39838;59.938;30.642;2023-05-10T14:24:43;4.95;;;2.70;;
48925;SDS011;39838;59.938;30.642;2023-05-10T14:27:12;4.68;;;2.60;;
48925;SDS011;39838;59.938;30.642;2023-05-10T14:29:39;6.22;;;2.45;;
48925;SDS011;39838;59.938;30.642;2023-05-10T14:32:06;3.90;;;2.50;;
48925;SDS011;39838;59.938;30.642;2023-05-10T14:34:34;7.57;;;2.60;;
48925;SDS011;39838;59.938;30.642;2023-05-10T14:37:01;6.72;;;3.10;;
48925;SDS011;39838;59.938;30.642;2023-05-10T14:39:29;6.95;;;2.42;;
48925;SDS011;39838;59.938;30.642;2023-05-10T14:41:59;6.60;;;2.47;;
48925;SDS011;39838;59.938;30.642;2023-05-10T14:44:28;5.82;;;2.60;;
48925;SDS011;39838;59.938;30.642;2023-05-10T14:46:56;7.88;;;2.40;;